Adjunta de los Arroyos, Mexico

12:48 PM CDT on May 24, 2017 (GMT -0500)
Rancho la Zorra | | Change Station

Elev 1200 ft 27.23 °N, 100.98 °W | Updated 52 seconds ago

Clear
Clear
82.3 °F
Feels Like 81 °F
N
3.7
Wind Variable Wind from North

Today
High -- | Low -- °F
--% Chance of Precip.
Yesterday
High -- | Low -- °F
Precip. -- in
Pressure 30.00 in
Visibility 6.0 miles
Clouds Mostly Cloudy 6000 ft
Heat Index 81 °F
Dew Point 49 °F
Humidity 32%
Rainfall 0.00 in
Snow Depth Not available.
6:52 AM 8:30 PM
Waning Crescent, 2% visible
METAR MMMV 241640Z 09004KT 6SM HZ BKN060 26/08 A3000 RMK8/500
Pressure 30.00 in
Visibility 6.0 miles
Clouds Mostly Cloudy 6000 ft
Heat Index 81 °F
Dew Point 49 °F
Humidity 32%
Rainfall 0.00 in
Snow Depth Not available.
6:52 AM 8:30 PM
Waning Crescent, 2% visible
METAR MMMV 241640Z 09004KT 6SM HZ BKN060 26/08 A3000 RMK8/500

Get Severe Weather Alerts

Thanks for signing up!

Be on the lookout for a verification email in your inbox.

You'll start receiving the daily forecast at 6 AM.

×

10-Day Weather Forecast

No radar image for this location.
×

Almanac

Astronomy

May. 24, 2017 Rise Set
Actual Time
Civil Twilight
Nautical Twilight
Astronomical Twilight
Moon
Length of Visible Light
Length of Day
Tomorrow will be .
, % of the Moon is Illuminated

Today's Extremes

Country Highs Country Lows

Community

WunderPhotos

Category 6

Welcome to Category 6. This is the collective home for Weather Underground's featured writeups by Dr. Jeff Masters (right), Bob Henson (left), Chris Burt, and other regular contributors.

Nearby

Air Quality

  Air Quality AQ Index Pollutant
Not available.

Snow Depth

Station Depth Elevation

Earthquake Activity

City Distance Mag. Time & Date
Minimum magnitude displayed is 2.5.

Coastal Water Temperatures

Place Temperature

Stations

Nearby Weather Stations

Station Location Temp. Windchill Dew Point Humidity Wind Precip. Elev Updated Type